<?xml version="1.0" encoding="UTF-8" standalone="no" ?>
<gpx xmlns="http://www.topografix.com/GPX/1/1" xmlns:xsi="http://www.w3.org/2001/XMLSchema-instance" xsi:schemaLocation="http://www.topografix.com/GPX/1/1 http://www.topografix.com/GPX/1/1/gpx.xsd" version="1.1" creator="VisuGPX - https://www.visugpx.com">
  <metadata>
    <name>BALLADE CHABLIS 2022</name>
  </metadata>
  <trk>
    <name><![CDATA[12240360-2022]]></name>
    <trkseg>
      <trkpt lat="47.81279" lon="3.79978">
        <ele>139</ele>
        <time>2022-04-04T06:56:00Z</time>
      </trkpt>
      <trkpt lat="47.8128" lon="3.80004">
        <ele>139</ele>
        <time>2022-04-04T06:56:23Z</time>
      </trkpt>
      <trkpt lat="47.81283" lon="3.80027">
        <ele>139</ele>
        <time>2022-04-04T06:56:44Z</time>
      </trkpt>
      <trkpt lat="47.81304" lon="3.80026">
        <ele>139</ele>
        <time>2022-04-04T06:57:12Z</time>
      </trkpt>
      <trkpt lat="47.81307" lon="3.80021">
        <ele>139</ele>
        <time>2022-04-04T06:57:18Z</time>
      </trkpt>
      <trkpt lat="47.81311" lon="3.80059">
        <ele>139</ele>
        <time>2022-04-04T06:57:53Z</time>
      </trkpt>
      <trkpt lat="47.81328" lon="3.80058">
        <ele>139</ele>
        <time>2022-04-04T06:58:16Z</time>
      </trkpt>
      <trkpt lat="47.81354" lon="3.80046">
        <ele>139</ele>
        <time>2022-04-04T06:58:52Z</time>
      </trkpt>
      <trkpt lat="47.81338" lon="3.79927">
        <ele>140</ele>
        <time>2022-04-04T07:00:41Z</time>
      </trkpt>
      <trkpt lat="47.81246" lon="3.79737">
        <ele>141</ele>
        <time>2022-04-04T07:04:11Z</time>
      </trkpt>
      <trkpt lat="47.81282" lon="3.79641">
        <ele>141</ele>
        <time>2022-04-04T07:05:49Z</time>
      </trkpt>
      <trkpt lat="47.81337" lon="3.79408">
        <ele>139</ele>
        <time>2022-04-04T07:09:30Z</time>
      </trkpt>
      <trkpt lat="47.81273" lon="3.79355">
        <ele>140</ele>
        <time>2022-04-04T07:11:08Z</time>
      </trkpt>
      <trkpt lat="47.81203" lon="3.79289">
        <ele>142</ele>
        <time>2022-04-04T07:12:59Z</time>
      </trkpt>
      <trkpt lat="47.81117" lon="3.79204">
        <ele>144</ele>
        <time>2022-04-04T07:15:16Z</time>
      </trkpt>
      <trkpt lat="47.81058" lon="3.79149">
        <ele>147</ele>
        <time>2022-04-04T07:16:49Z</time>
      </trkpt>
      <trkpt lat="47.80998" lon="3.79112">
        <ele>152</ele>
        <time>2022-04-04T07:18:16Z</time>
      </trkpt>
      <trkpt lat="47.80915" lon="3.7908">
        <ele>155</ele>
        <time>2022-04-04T07:20:10Z</time>
      </trkpt>
      <trkpt lat="47.80877" lon="3.78937">
        <ele>160</ele>
        <time>2022-04-04T07:22:28Z</time>
      </trkpt>
      <trkpt lat="47.80962" lon="3.78781">
        <ele>157</ele>
        <time>2022-04-04T07:25:28Z</time>
      </trkpt>
      <trkpt lat="47.81004" lon="3.78648">
        <ele>156</ele>
        <time>2022-04-04T07:27:40Z</time>
      </trkpt>
      <trkpt lat="47.80983" lon="3.7862">
        <ele>158</ele>
        <time>2022-04-04T07:28:18Z</time>
      </trkpt>
      <trkpt lat="47.81053" lon="3.78431">
        <ele>156</ele>
        <time>2022-04-04T07:31:31Z</time>
      </trkpt>
      <trkpt lat="47.80996" lon="3.7827">
        <ele>167</ele>
        <time>2022-04-04T07:34:14Z</time>
      </trkpt>
      <trkpt lat="47.8108" lon="3.77979">
        <ele>159</ele>
        <time>2022-04-04T07:38:58Z</time>
      </trkpt>
      <trkpt lat="47.81172" lon="3.77772">
        <ele>159</ele>
        <time>2022-04-04T07:42:40Z</time>
      </trkpt>
      <trkpt lat="47.81181" lon="3.77658">
        <ele>164</ele>
        <time>2022-04-04T07:44:23Z</time>
      </trkpt>
      <trkpt lat="47.81209" lon="3.77565">
        <ele>164</ele>
        <time>2022-04-04T07:45:55Z</time>
      </trkpt>
      <trkpt lat="47.81229" lon="3.77523">
        <ele>163</ele>
        <time>2022-04-04T07:46:41Z</time>
      </trkpt>
      <trkpt lat="47.81264" lon="3.77516">
        <ele>161</ele>
        <time>2022-04-04T07:47:28Z</time>
      </trkpt>
      <trkpt lat="47.81309" lon="3.77476">
        <ele>159</ele>
        <time>2022-04-04T07:48:38Z</time>
      </trkpt>
      <trkpt lat="47.81332" lon="3.77443">
        <ele>159</ele>
        <time>2022-04-04T07:49:21Z</time>
      </trkpt>
      <trkpt lat="47.81337" lon="3.77429">
        <ele>159</ele>
        <time>2022-04-04T07:49:35Z</time>
      </trkpt>
      <trkpt lat="47.81344" lon="3.77414">
        <ele>160</ele>
        <time>2022-04-04T07:49:51Z</time>
      </trkpt>
      <trkpt lat="47.81358" lon="3.7739">
        <ele>160</ele>
        <time>2022-04-04T07:50:20Z</time>
      </trkpt>
      <trkpt lat="47.81372" lon="3.77366">
        <ele>159</ele>
        <time>2022-04-04T07:50:48Z</time>
      </trkpt>
      <trkpt lat="47.81392" lon="3.77328">
        <ele>159</ele>
        <time>2022-04-04T07:51:31Z</time>
      </trkpt>
      <trkpt lat="47.81415" lon="3.77287">
        <ele>158</ele>
        <time>2022-04-04T07:52:19Z</time>
      </trkpt>
      <trkpt lat="47.81451" lon="3.77218">
        <ele>155</ele>
        <time>2022-04-04T07:53:38Z</time>
      </trkpt>
      <trkpt lat="47.81467" lon="3.77218">
        <ele>155</ele>
        <time>2022-04-04T07:53:59Z</time>
      </trkpt>
      <trkpt lat="47.81481" lon="3.77234">
        <ele>155</ele>
        <time>2022-04-04T07:54:22Z</time>
      </trkpt>
      <trkpt lat="47.81496" lon="3.77246">
        <ele>155</ele>
        <time>2022-04-04T07:54:45Z</time>
      </trkpt>
      <trkpt lat="47.81514" lon="3.77265">
        <ele>154</ele>
        <time>2022-04-04T07:55:15Z</time>
      </trkpt>
      <trkpt lat="47.81527" lon="3.77246">
        <ele>153</ele>
        <time>2022-04-04T07:55:39Z</time>
      </trkpt>
      <trkpt lat="47.81538" lon="3.77259">
        <ele>153</ele>
        <time>2022-04-04T07:55:58Z</time>
      </trkpt>
      <trkpt lat="47.81571" lon="3.77301">
        <ele>151</ele>
        <time>2022-04-04T07:56:56Z</time>
      </trkpt>
      <trkpt lat="47.81624" lon="3.77179">
        <ele>146</ele>
        <time>2022-04-04T07:59:06Z</time>
      </trkpt>
      <trkpt lat="47.81583" lon="3.77146">
        <ele>150</ele>
        <time>2022-04-04T08:00:08Z</time>
      </trkpt>
      <trkpt lat="47.81567" lon="3.7713">
        <ele>150</ele>
        <time>2022-04-04T08:00:34Z</time>
      </trkpt>
      <trkpt lat="47.81559" lon="3.77109">
        <ele>150</ele>
        <time>2022-04-04T08:00:55Z</time>
      </trkpt>
      <trkpt lat="47.81548" lon="3.77073">
        <ele>150</ele>
        <time>2022-04-04T08:01:31Z</time>
      </trkpt>
      <trkpt lat="47.81531" lon="3.77023">
        <ele>149</ele>
        <time>2022-04-04T08:02:21Z</time>
      </trkpt>
      <trkpt lat="47.81502" lon="3.76946">
        <ele>148</ele>
        <time>2022-04-04T08:03:40Z</time>
      </trkpt>
      <trkpt lat="47.81502" lon="3.76924">
        <ele>148</ele>
        <time>2022-04-04T08:04:00Z</time>
      </trkpt>
      <trkpt lat="47.81512" lon="3.76894">
        <ele>148</ele>
        <time>2022-04-04T08:04:30Z</time>
      </trkpt>
      <trkpt lat="47.81544" lon="3.76841">
        <ele>151</ele>
        <time>2022-04-04T08:05:34Z</time>
      </trkpt>
      <trkpt lat="47.81562" lon="3.76861">
        <ele>152</ele>
        <time>2022-04-04T08:06:04Z</time>
      </trkpt>
      <trkpt lat="47.81579" lon="3.76885">
        <ele>152</ele>
        <time>2022-04-04T08:06:35Z</time>
      </trkpt>
      <trkpt lat="47.81597" lon="3.76912">
        <ele>151</ele>
        <time>2022-04-04T08:07:09Z</time>
      </trkpt>
      <trkpt lat="47.8162" lon="3.76919">
        <ele>153</ele>
        <time>2022-04-04T08:07:40Z</time>
      </trkpt>
      <trkpt lat="47.81671" lon="3.76972">
        <ele>152</ele>
        <time>2022-04-04T08:09:03Z</time>
      </trkpt>
      <trkpt lat="47.81699" lon="3.77011">
        <ele>151</ele>
        <time>2022-04-04T08:09:55Z</time>
      </trkpt>
      <trkpt lat="47.81717" lon="3.77014">
        <ele>153</ele>
        <time>2022-04-04T08:10:19Z</time>
      </trkpt>
      <trkpt lat="47.81743" lon="3.77051">
        <ele>152</ele>
        <time>2022-04-04T08:11:07Z</time>
      </trkpt>
      <trkpt lat="47.81774" lon="3.77097">
        <ele>150</ele>
        <time>2022-04-04T08:12:05Z</time>
      </trkpt>
      <trkpt lat="47.81796" lon="3.77131">
        <ele>149</ele>
        <time>2022-04-04T08:12:47Z</time>
      </trkpt>
      <trkpt lat="47.81814" lon="3.77155">
        <ele>149</ele>
        <time>2022-04-04T08:13:20Z</time>
      </trkpt>
      <trkpt lat="47.81824" lon="3.7718">
        <ele>147</ele>
        <time>2022-04-04T08:13:46Z</time>
      </trkpt>
      <trkpt lat="47.81844" lon="3.77206">
        <ele>147</ele>
        <time>2022-04-04T08:14:21Z</time>
      </trkpt>
      <trkpt lat="47.81871" lon="3.77236">
        <ele>146</ele>
        <time>2022-04-04T08:15:06Z</time>
      </trkpt>
      <trkpt lat="47.81894" lon="3.77256">
        <ele>145</ele>
        <time>2022-04-04T08:15:42Z</time>
      </trkpt>
      <trkpt lat="47.81941" lon="3.77279">
        <ele>145</ele>
        <time>2022-04-04T08:16:48Z</time>
      </trkpt>
      <trkpt lat="47.81979" lon="3.77293">
        <ele>144</ele>
        <time>2022-04-04T08:17:40Z</time>
      </trkpt>
      <trkpt lat="47.81997" lon="3.77217">
        <ele>155</ele>
        <time>2022-04-04T08:18:52Z</time>
      </trkpt>
      <trkpt lat="47.82035" lon="3.77232">
        <ele>154</ele>
        <time>2022-04-04T08:19:45Z</time>
      </trkpt>
      <trkpt lat="47.82069" lon="3.77048">
        <ele>179</ele>
        <time>2022-04-04T08:22:36Z</time>
      </trkpt>
      <trkpt lat="47.82078" lon="3.76978">
        <ele>186</ele>
        <time>2022-04-04T08:23:39Z</time>
      </trkpt>
      <trkpt lat="47.82048" lon="3.76966">
        <ele>188</ele>
        <time>2022-04-04T08:24:21Z</time>
      </trkpt>
      <trkpt lat="47.82024" lon="3.76964">
        <ele>188</ele>
        <time>2022-04-04T08:24:53Z</time>
      </trkpt>
      <trkpt lat="47.82" lon="3.76956">
        <ele>189</ele>
        <time>2022-04-04T08:25:26Z</time>
      </trkpt>
      <trkpt lat="47.81988" lon="3.76941">
        <ele>190</ele>
        <time>2022-04-04T08:25:47Z</time>
      </trkpt>
      <trkpt lat="47.81993" lon="3.76913">
        <ele>193</ele>
        <time>2022-04-04T08:26:13Z</time>
      </trkpt>
      <trkpt lat="47.82011" lon="3.76878">
        <ele>196</ele>
        <time>2022-04-04T08:26:52Z</time>
      </trkpt>
      <trkpt lat="47.82021" lon="3.76839">
        <ele>198</ele>
        <time>2022-04-04T08:27:30Z</time>
      </trkpt>
      <trkpt lat="47.82026" lon="3.76755">
        <ele>206</ele>
        <time>2022-04-04T08:28:45Z</time>
      </trkpt>
      <trkpt lat="47.82026" lon="3.76715">
        <ele>209</ele>
        <time>2022-04-04T08:29:21Z</time>
      </trkpt>
      <trkpt lat="47.82059" lon="3.76699">
        <ele>207</ele>
        <time>2022-04-04T08:30:07Z</time>
      </trkpt>
      <trkpt lat="47.82027" lon="3.76657">
        <ele>212</ele>
        <time>2022-04-04T08:31:04Z</time>
      </trkpt>
      <trkpt lat="47.81973" lon="3.76593">
        <ele>216</ele>
        <time>2022-04-04T08:32:36Z</time>
      </trkpt>
      <trkpt lat="47.81922" lon="3.76534">
        <ele>219</ele>
        <time>2022-04-04T08:34:02Z</time>
      </trkpt>
      <trkpt lat="47.81871" lon="3.76498">
        <ele>222</ele>
        <time>2022-04-04T08:35:18Z</time>
      </trkpt>
      <trkpt lat="47.81823" lon="3.76435">
        <ele>225</ele>
        <time>2022-04-04T08:36:43Z</time>
      </trkpt>
      <trkpt lat="47.81811" lon="3.76405">
        <ele>226</ele>
        <time>2022-04-04T08:37:14Z</time>
      </trkpt>
      <trkpt lat="47.81789" lon="3.76354">
        <ele>228</ele>
        <time>2022-04-04T08:38:09Z</time>
      </trkpt>
      <trkpt lat="47.81768" lon="3.76391">
        <ele>227</ele>
        <time>2022-04-04T08:38:52Z</time>
      </trkpt>
      <trkpt lat="47.81762" lon="3.76428">
        <ele>226</ele>
        <time>2022-04-04T08:39:26Z</time>
      </trkpt>
      <trkpt lat="47.81775" lon="3.76516">
        <ele>220</ele>
        <time>2022-04-04T08:40:47Z</time>
      </trkpt>
      <trkpt lat="47.81788" lon="3.76566">
        <ele>216</ele>
        <time>2022-04-04T08:41:35Z</time>
      </trkpt>
      <trkpt lat="47.81714" lon="3.76513">
        <ele>214</ele>
        <time>2022-04-04T08:43:25Z</time>
      </trkpt>
      <trkpt lat="47.81693" lon="3.76494">
        <ele>213</ele>
        <time>2022-04-04T08:43:57Z</time>
      </trkpt>
      <trkpt lat="47.81664" lon="3.76451">
        <ele>214</ele>
        <time>2022-04-04T08:44:52Z</time>
      </trkpt>
      <trkpt lat="47.81631" lon="3.76399">
        <ele>213</ele>
        <time>2022-04-04T08:45:56Z</time>
      </trkpt>
      <trkpt lat="47.81609" lon="3.76357">
        <ele>214</ele>
        <time>2022-04-04T08:46:44Z</time>
      </trkpt>
      <trkpt lat="47.81585" lon="3.76307">
        <ele>216</ele>
        <time>2022-04-04T08:47:39Z</time>
      </trkpt>
      <trkpt lat="47.81567" lon="3.76269">
        <ele>217</ele>
        <time>2022-04-04T08:48:21Z</time>
      </trkpt>
      <trkpt lat="47.81549" lon="3.76242">
        <ele>216</ele>
        <time>2022-04-04T08:48:55Z</time>
      </trkpt>
      <trkpt lat="47.81531" lon="3.76214">
        <ele>216</ele>
        <time>2022-04-04T08:49:29Z</time>
      </trkpt>
      <trkpt lat="47.81501" lon="3.76154">
        <ele>218</ele>
        <time>2022-04-04T08:50:36Z</time>
      </trkpt>
      <trkpt lat="47.81481" lon="3.76123">
        <ele>218</ele>
        <time>2022-04-04T08:51:15Z</time>
      </trkpt>
      <trkpt lat="47.81463" lon="3.7608">
        <ele>219</ele>
        <time>2022-04-04T08:52:00Z</time>
      </trkpt>
      <trkpt lat="47.81445" lon="3.76049">
        <ele>219</ele>
        <time>2022-04-04T08:52:37Z</time>
      </trkpt>
      <trkpt lat="47.81435" lon="3.76029">
        <ele>220</ele>
        <time>2022-04-04T08:52:59Z</time>
      </trkpt>
      <trkpt lat="47.81422" lon="3.76005">
        <ele>220</ele>
        <time>2022-04-04T08:53:27Z</time>
      </trkpt>
      <trkpt lat="47.81406" lon="3.75984">
        <ele>220</ele>
        <time>2022-04-04T08:53:56Z</time>
      </trkpt>
      <trkpt lat="47.81394" lon="3.75972">
        <ele>219</ele>
        <time>2022-04-04T08:54:15Z</time>
      </trkpt>
      <trkpt lat="47.8138" lon="3.7595">
        <ele>219</ele>
        <time>2022-04-04T08:54:42Z</time>
      </trkpt>
      <trkpt lat="47.81356" lon="3.75902">
        <ele>220</ele>
        <time>2022-04-04T08:55:36Z</time>
      </trkpt>
      <trkpt lat="47.81335" lon="3.75859">
        <ele>221</ele>
        <time>2022-04-04T08:56:23Z</time>
      </trkpt>
      <trkpt lat="47.81313" lon="3.75815">
        <ele>221</ele>
        <time>2022-04-04T08:57:12Z</time>
      </trkpt>
      <trkpt lat="47.81304" lon="3.75789">
        <ele>222</ele>
        <time>2022-04-04T08:57:39Z</time>
      </trkpt>
      <trkpt lat="47.81294" lon="3.7577">
        <ele>221</ele>
        <time>2022-04-04T08:58:00Z</time>
      </trkpt>
      <trkpt lat="47.81282" lon="3.75737">
        <ele>222</ele>
        <time>2022-04-04T08:58:34Z</time>
      </trkpt>
      <trkpt lat="47.81262" lon="3.75699">
        <ele>222</ele>
        <time>2022-04-04T08:59:17Z</time>
      </trkpt>
      <trkpt lat="47.81243" lon="3.75649">
        <ele>223</ele>
        <time>2022-04-04T09:00:09Z</time>
      </trkpt>
      <trkpt lat="47.81229" lon="3.75612">
        <ele>224</ele>
        <time>2022-04-04T09:00:47Z</time>
      </trkpt>
      <trkpt lat="47.81215" lon="3.7558">
        <ele>224</ele>
        <time>2022-04-04T09:01:21Z</time>
      </trkpt>
      <trkpt lat="47.81203" lon="3.75552">
        <ele>223</ele>
        <time>2022-04-04T09:01:51Z</time>
      </trkpt>
      <trkpt lat="47.81178" lon="3.75497">
        <ele>224</ele>
        <time>2022-04-04T09:02:50Z</time>
      </trkpt>
      <trkpt lat="47.8115" lon="3.75444">
        <ele>228</ele>
        <time>2022-04-04T09:03:51Z</time>
      </trkpt>
      <trkpt lat="47.81136" lon="3.75421">
        <ele>229</ele>
        <time>2022-04-04T09:04:19Z</time>
      </trkpt>
      <trkpt lat="47.81116" lon="3.75398">
        <ele>230</ele>
        <time>2022-04-04T09:04:52Z</time>
      </trkpt>
      <trkpt lat="47.81088" lon="3.75391">
        <ele>228</ele>
        <time>2022-04-04T09:05:30Z</time>
      </trkpt>
      <trkpt lat="47.81062" lon="3.75402">
        <ele>228</ele>
        <time>2022-04-04T09:06:06Z</time>
      </trkpt>
      <trkpt lat="47.81041" lon="3.75423">
        <ele>228</ele>
        <time>2022-04-04T09:06:40Z</time>
      </trkpt>
      <trkpt lat="47.81039" lon="3.75448">
        <ele>226</ele>
        <time>2022-04-04T09:07:03Z</time>
      </trkpt>
      <trkpt lat="47.81038" lon="3.7548">
        <ele>223</ele>
        <time>2022-04-04T09:07:31Z</time>
      </trkpt>
      <trkpt lat="47.81041" lon="3.75542">
        <ele>219</ele>
        <time>2022-04-04T09:08:27Z</time>
      </trkpt>
      <trkpt lat="47.81049" lon="3.75584">
        <ele>215</ele>
        <time>2022-04-04T09:09:06Z</time>
      </trkpt>
      <trkpt lat="47.8106" lon="3.75644">
        <ele>209</ele>
        <time>2022-04-04T09:10:02Z</time>
      </trkpt>
      <trkpt lat="47.81068" lon="3.7569">
        <ele>205</ele>
        <time>2022-04-04T09:10:44Z</time>
      </trkpt>
      <trkpt lat="47.81075" lon="3.75732">
        <ele>202</ele>
        <time>2022-04-04T09:11:23Z</time>
      </trkpt>
      <trkpt lat="47.81083" lon="3.75793">
        <ele>196</ele>
        <time>2022-04-04T09:12:19Z</time>
      </trkpt>
      <trkpt lat="47.81089" lon="3.75841">
        <ele>192</ele>
        <time>2022-04-04T09:13:03Z</time>
      </trkpt>
      <trkpt lat="47.81094" lon="3.75871">
        <ele>191</ele>
        <time>2022-04-04T09:13:30Z</time>
      </trkpt>
      <trkpt lat="47.81097" lon="3.75919">
        <ele>190</ele>
        <time>2022-04-04T09:14:14Z</time>
      </trkpt>
      <trkpt lat="47.81103" lon="3.7597">
        <ele>187</ele>
        <time>2022-04-04T09:15:00Z</time>
      </trkpt>
      <trkpt lat="47.81108" lon="3.76028">
        <ele>183</ele>
        <time>2022-04-04T09:15:52Z</time>
      </trkpt>
      <trkpt lat="47.81116" lon="3.76104">
        <ele>177</ele>
        <time>2022-04-04T09:17:01Z</time>
      </trkpt>
      <trkpt lat="47.8112" lon="3.76159">
        <ele>173</ele>
        <time>2022-04-04T09:17:51Z</time>
      </trkpt>
      <trkpt lat="47.81121" lon="3.76217">
        <ele>169</ele>
        <time>2022-04-04T09:18:43Z</time>
      </trkpt>
      <trkpt lat="47.81122" lon="3.76246">
        <ele>167</ele>
        <time>2022-04-04T09:19:09Z</time>
      </trkpt>
      <trkpt lat="47.81095" lon="3.76264">
        <ele>169</ele>
        <time>2022-04-04T09:19:48Z</time>
      </trkpt>
      <trkpt lat="47.81066" lon="3.76267">
        <ele>170</ele>
        <time>2022-04-04T09:20:27Z</time>
      </trkpt>
      <trkpt lat="47.81015" lon="3.76266">
        <ele>171</ele>
        <time>2022-04-04T09:21:35Z</time>
      </trkpt>
      <trkpt lat="47.80951" lon="3.76261">
        <ele>174</ele>
        <time>2022-04-04T09:23:01Z</time>
      </trkpt>
      <trkpt lat="47.80844" lon="3.76202">
        <ele>180</ele>
        <time>2022-04-04T09:25:33Z</time>
      </trkpt>
      <trkpt lat="47.80797" lon="3.76173">
        <ele>181</ele>
        <time>2022-04-04T09:26:41Z</time>
      </trkpt>
      <trkpt lat="47.80745" lon="3.7612">
        <ele>185</ele>
        <time>2022-04-04T09:28:05Z</time>
      </trkpt>
      <trkpt lat="47.80699" lon="3.76071">
        <ele>188</ele>
        <time>2022-04-04T09:29:20Z</time>
      </trkpt>
      <trkpt lat="47.80661" lon="3.76029">
        <ele>190</ele>
        <time>2022-04-04T09:30:24Z</time>
      </trkpt>
      <trkpt lat="47.80604" lon="3.75979">
        <ele>193</ele>
        <time>2022-04-04T09:31:52Z</time>
      </trkpt>
      <trkpt lat="47.80553" lon="3.75932">
        <ele>198</ele>
        <time>2022-04-04T09:33:12Z</time>
      </trkpt>
      <trkpt lat="47.80517" lon="3.75892">
        <ele>201</ele>
        <time>2022-04-04T09:34:12Z</time>
      </trkpt>
      <trkpt lat="47.80451" lon="3.7585">
        <ele>205</ele>
        <time>2022-04-04T09:35:48Z</time>
      </trkpt>
      <trkpt lat="47.8043" lon="3.75873">
        <ele>206</ele>
        <time>2022-04-04T09:36:22Z</time>
      </trkpt>
      <trkpt lat="47.80392" lon="3.75924">
        <ele>213</ele>
        <time>2022-04-04T09:37:31Z</time>
      </trkpt>
      <trkpt lat="47.8034" lon="3.75982">
        <ele>224</ele>
        <time>2022-04-04T09:38:57Z</time>
      </trkpt>
      <trkpt lat="47.80305" lon="3.76012">
        <ele>233</ele>
        <time>2022-04-04T09:39:51Z</time>
      </trkpt>
      <trkpt lat="47.8028" lon="3.76042">
        <ele>241</ele>
        <time>2022-04-04T09:40:34Z</time>
      </trkpt>
      <trkpt lat="47.80295" lon="3.76097">
        <ele>239</ele>
        <time>2022-04-04T09:41:27Z</time>
      </trkpt>
      <trkpt lat="47.80307" lon="3.76159">
        <ele>240</ele>
        <time>2022-04-04T09:42:25Z</time>
      </trkpt>
      <trkpt lat="47.8027" lon="3.76197">
        <ele>250</ele>
        <time>2022-04-04T09:43:25Z</time>
      </trkpt>
      <trkpt lat="47.80246" lon="3.7622">
        <ele>256</ele>
        <time>2022-04-04T09:44:03Z</time>
      </trkpt>
      <trkpt lat="47.80228" lon="3.76272">
        <ele>263</ele>
        <time>2022-04-04T09:44:56Z</time>
      </trkpt>
      <trkpt lat="47.80338" lon="3.76416">
        <ele>257</ele>
        <time>2022-04-04T09:48:11Z</time>
      </trkpt>
      <trkpt lat="47.80419" lon="3.76533">
        <ele>254</ele>
        <time>2022-04-04T09:50:42Z</time>
      </trkpt>
      <trkpt lat="47.80505" lon="3.76654">
        <ele>251</ele>
        <time>2022-04-04T09:53:20Z</time>
      </trkpt>
      <trkpt lat="47.80558" lon="3.76725">
        <ele>249</ele>
        <time>2022-04-04T09:54:55Z</time>
      </trkpt>
      <trkpt lat="47.80598" lon="3.76778">
        <ele>246</ele>
        <time>2022-04-04T09:56:06Z</time>
      </trkpt>
      <trkpt lat="47.8067" lon="3.76883">
        <ele>237</ele>
        <time>2022-04-04T09:58:21Z</time>
      </trkpt>
      <trkpt lat="47.80674" lon="3.76916">
        <ele>238</ele>
        <time>2022-04-04T09:58:51Z</time>
      </trkpt>
      <trkpt lat="47.80671" lon="3.76966">
        <ele>240</ele>
        <time>2022-04-04T09:59:36Z</time>
      </trkpt>
      <trkpt lat="47.80686" lon="3.77023">
        <ele>237</ele>
        <time>2022-04-04T10:00:31Z</time>
      </trkpt>
      <trkpt lat="47.80702" lon="3.77071">
        <ele>234</ele>
        <time>2022-04-04T10:01:19Z</time>
      </trkpt>
      <trkpt lat="47.80711" lon="3.77115">
        <ele>232</ele>
        <time>2022-04-04T10:02:00Z</time>
      </trkpt>
      <trkpt lat="47.80705" lon="3.77146">
        <ele>233</ele>
        <time>2022-04-04T10:02:29Z</time>
      </trkpt>
      <trkpt lat="47.80685" lon="3.77218">
        <ele>235</ele>
        <time>2022-04-04T10:03:39Z</time>
      </trkpt>
      <trkpt lat="47.80668" lon="3.77275">
        <ele>236</ele>
        <time>2022-04-04T10:04:35Z</time>
      </trkpt>
      <trkpt lat="47.80647" lon="3.77329">
        <ele>235</ele>
        <time>2022-04-04T10:05:31Z</time>
      </trkpt>
      <trkpt lat="47.80627" lon="3.77366">
        <ele>234</ele>
        <time>2022-04-04T10:06:13Z</time>
      </trkpt>
      <trkpt lat="47.80613" lon="3.77375">
        <ele>234</ele>
        <time>2022-04-04T10:06:33Z</time>
      </trkpt>
      <trkpt lat="47.8058" lon="3.77305">
        <ele>242</ele>
        <time>2022-04-04T10:07:50Z</time>
      </trkpt>
      <trkpt lat="47.80534" lon="3.77246">
        <ele>243</ele>
        <time>2022-04-04T10:09:11Z</time>
      </trkpt>
      <trkpt lat="47.80505" lon="3.77188">
        <ele>244</ele>
        <time>2022-04-04T10:10:16Z</time>
      </trkpt>
      <trkpt lat="47.80478" lon="3.77141">
        <ele>246</ele>
        <time>2022-04-04T10:11:11Z</time>
      </trkpt>
      <trkpt lat="47.80447" lon="3.77086">
        <ele>249</ele>
        <time>2022-04-04T10:12:16Z</time>
      </trkpt>
      <trkpt lat="47.80411" lon="3.77053">
        <ele>249</ele>
        <time>2022-04-04T10:13:12Z</time>
      </trkpt>
      <trkpt lat="47.80369" lon="3.77018">
        <ele>248</ele>
        <time>2022-04-04T10:14:16Z</time>
      </trkpt>
      <trkpt lat="47.80337" lon="3.76983">
        <ele>248</ele>
        <time>2022-04-04T10:15:09Z</time>
      </trkpt>
      <trkpt lat="47.80323" lon="3.76944">
        <ele>249</ele>
        <time>2022-04-04T10:15:49Z</time>
      </trkpt>
      <trkpt lat="47.8028" lon="3.76885">
        <ele>250</ele>
        <time>2022-04-04T10:17:07Z</time>
      </trkpt>
      <trkpt lat="47.80254" lon="3.76839">
        <ele>254</ele>
        <time>2022-04-04T10:18:01Z</time>
      </trkpt>
      <trkpt lat="47.80233" lon="3.7688">
        <ele>247</ele>
        <time>2022-04-04T10:18:47Z</time>
      </trkpt>
      <trkpt lat="47.80205" lon="3.7693">
        <ele>238</ele>
        <time>2022-04-04T10:19:45Z</time>
      </trkpt>
      <trkpt lat="47.80188" lon="3.76941">
        <ele>235</ele>
        <time>2022-04-04T10:20:10Z</time>
      </trkpt>
      <trkpt lat="47.80199" lon="3.76983">
        <ele>230</ele>
        <time>2022-04-04T10:20:51Z</time>
      </trkpt>
      <trkpt lat="47.80219" lon="3.7704">
        <ele>226</ele>
        <time>2022-04-04T10:21:48Z</time>
      </trkpt>
      <trkpt lat="47.80236" lon="3.77085">
        <ele>223</ele>
        <time>2022-04-04T10:22:35Z</time>
      </trkpt>
      <trkpt lat="47.80279" lon="3.77186">
        <ele>221</ele>
        <time>2022-04-04T10:24:22Z</time>
      </trkpt>
      <trkpt lat="47.80306" lon="3.77257">
        <ele>220</ele>
        <time>2022-04-04T10:25:35Z</time>
      </trkpt>
      <trkpt lat="47.80331" lon="3.77304">
        <ele>219</ele>
        <time>2022-04-04T10:26:29Z</time>
      </trkpt>
      <trkpt lat="47.80338" lon="3.77355">
        <ele>216</ele>
        <time>2022-04-04T10:27:15Z</time>
      </trkpt>
      <trkpt lat="47.80351" lon="3.77403">
        <ele>213</ele>
        <time>2022-04-04T10:28:02Z</time>
      </trkpt>
      <trkpt lat="47.80325" lon="3.77432">
        <ele>207</ele>
        <time>2022-04-04T10:28:45Z</time>
      </trkpt>
      <trkpt lat="47.80304" lon="3.7746">
        <ele>202</ele>
        <time>2022-04-04T10:29:23Z</time>
      </trkpt>
      <trkpt lat="47.80266" lon="3.77491">
        <ele>195</ele>
        <time>2022-04-04T10:30:20Z</time>
      </trkpt>
      <trkpt lat="47.80238" lon="3.7751">
        <ele>191</ele>
        <time>2022-04-04T10:31:02Z</time>
      </trkpt>
      <trkpt lat="47.80186" lon="3.77538">
        <ele>185</ele>
        <time>2022-04-04T10:32:15Z</time>
      </trkpt>
      <trkpt lat="47.80161" lon="3.77552">
        <ele>183</ele>
        <time>2022-04-04T10:32:51Z</time>
      </trkpt>
      <trkpt lat="47.80144" lon="3.77604">
        <ele>180</ele>
        <time>2022-04-04T10:33:43Z</time>
      </trkpt>
      <trkpt lat="47.80139" lon="3.77646">
        <ele>178</ele>
        <time>2022-04-04T10:34:21Z</time>
      </trkpt>
      <trkpt lat="47.80134" lon="3.77719">
        <ele>174</ele>
        <time>2022-04-04T10:35:27Z</time>
      </trkpt>
      <trkpt lat="47.80109" lon="3.77803">
        <ele>170</ele>
        <time>2022-04-04T10:36:49Z</time>
      </trkpt>
      <trkpt lat="47.80078" lon="3.77771">
        <ele>170</ele>
        <time>2022-04-04T10:37:39Z</time>
      </trkpt>
      <trkpt lat="47.80023" lon="3.77721">
        <ele>173</ele>
        <time>2022-04-04T10:39:05Z</time>
      </trkpt>
      <trkpt lat="47.79976" lon="3.77682">
        <ele>175</ele>
        <time>2022-04-04T10:40:17Z</time>
      </trkpt>
      <trkpt lat="47.79955" lon="3.77677">
        <ele>175</ele>
        <time>2022-04-04T10:40:46Z</time>
      </trkpt>
      <trkpt lat="47.79936" lon="3.77704">
        <ele>176</ele>
        <time>2022-04-04T10:41:21Z</time>
      </trkpt>
      <trkpt lat="47.7989" lon="3.77772">
        <ele>185</ele>
        <time>2022-04-04T10:42:47Z</time>
      </trkpt>
      <trkpt lat="47.79866" lon="3.77808">
        <ele>190</ele>
        <time>2022-04-04T10:43:33Z</time>
      </trkpt>
      <trkpt lat="47.79839" lon="3.77849">
        <ele>195</ele>
        <time>2022-04-04T10:44:24Z</time>
      </trkpt>
      <trkpt lat="47.79761" lon="3.7796">
        <ele>199</ele>
        <time>2022-04-04T10:46:48Z</time>
      </trkpt>
      <trkpt lat="47.79781" lon="3.77987">
        <ele>198</ele>
        <time>2022-04-04T10:47:24Z</time>
      </trkpt>
      <trkpt lat="47.79811" lon="3.78041">
        <ele>197</ele>
        <time>2022-04-04T10:48:27Z</time>
      </trkpt>
      <trkpt lat="47.79832" lon="3.78079">
        <ele>197</ele>
        <time>2022-04-04T10:49:11Z</time>
      </trkpt>
      <trkpt lat="47.79856" lon="3.78112">
        <ele>195</ele>
        <time>2022-04-04T10:49:55Z</time>
      </trkpt>
      <trkpt lat="47.79865" lon="3.7814">
        <ele>194</ele>
        <time>2022-04-04T10:50:23Z</time>
      </trkpt>
      <trkpt lat="47.79907" lon="3.78215">
        <ele>193</ele>
        <time>2022-04-04T10:51:50Z</time>
      </trkpt>
      <trkpt lat="47.79935" lon="3.78256">
        <ele>193</ele>
        <time>2022-04-04T10:52:42Z</time>
      </trkpt>
      <trkpt lat="47.79963" lon="3.78291">
        <ele>192</ele>
        <time>2022-04-04T10:53:31Z</time>
      </trkpt>
      <trkpt lat="47.79992" lon="3.78319">
        <ele>192</ele>
        <time>2022-04-04T10:54:17Z</time>
      </trkpt>
      <trkpt lat="47.80022" lon="3.7836">
        <ele>190</ele>
        <time>2022-04-04T10:55:12Z</time>
      </trkpt>
      <trkpt lat="47.80048" lon="3.78401">
        <ele>189</ele>
        <time>2022-04-04T10:56:02Z</time>
      </trkpt>
      <trkpt lat="47.80072" lon="3.78439">
        <ele>188</ele>
        <time>2022-04-04T10:56:49Z</time>
      </trkpt>
      <trkpt lat="47.80108" lon="3.78505">
        <ele>186</ele>
        <time>2022-04-04T10:58:05Z</time>
      </trkpt>
      <trkpt lat="47.8015" lon="3.78562">
        <ele>184</ele>
        <time>2022-04-04T10:59:21Z</time>
      </trkpt>
      <trkpt lat="47.80183" lon="3.78627">
        <ele>183</ele>
        <time>2022-04-04T11:00:34Z</time>
      </trkpt>
      <trkpt lat="47.80206" lon="3.78684">
        <ele>181</ele>
        <time>2022-04-04T11:01:34Z</time>
      </trkpt>
      <trkpt lat="47.80215" lon="3.78722">
        <ele>179</ele>
        <time>2022-04-04T11:02:10Z</time>
      </trkpt>
      <trkpt lat="47.80232" lon="3.78771">
        <ele>178</ele>
        <time>2022-04-04T11:02:59Z</time>
      </trkpt>
      <trkpt lat="47.80253" lon="3.78811">
        <ele>177</ele>
        <time>2022-04-04T11:03:45Z</time>
      </trkpt>
      <trkpt lat="47.80276" lon="3.7884">
        <ele>176</ele>
        <time>2022-04-04T11:04:25Z</time>
      </trkpt>
      <trkpt lat="47.80315" lon="3.78893">
        <ele>173</ele>
        <time>2022-04-04T11:05:35Z</time>
      </trkpt>
      <trkpt lat="47.80359" lon="3.78947">
        <ele>170</ele>
        <time>2022-04-04T11:06:52Z</time>
      </trkpt>
      <trkpt lat="47.80392" lon="3.78977">
        <ele>168</ele>
        <time>2022-04-04T11:07:43Z</time>
      </trkpt>
      <trkpt lat="47.80421" lon="3.79011">
        <ele>167</ele>
        <time>2022-04-04T11:08:32Z</time>
      </trkpt>
      <trkpt lat="47.80447" lon="3.79049">
        <ele>164</ele>
        <time>2022-04-04T11:09:21Z</time>
      </trkpt>
      <trkpt lat="47.80471" lon="3.79072">
        <ele>163</ele>
        <time>2022-04-04T11:09:59Z</time>
      </trkpt>
      <trkpt lat="47.80498" lon="3.79099">
        <ele>161</ele>
        <time>2022-04-04T11:10:43Z</time>
      </trkpt>
      <trkpt lat="47.80527" lon="3.79139">
        <ele>160</ele>
        <time>2022-04-04T11:11:35Z</time>
      </trkpt>
      <trkpt lat="47.80554" lon="3.79168">
        <ele>159</ele>
        <time>2022-04-04T11:12:20Z</time>
      </trkpt>
      <trkpt lat="47.80581" lon="3.79213">
        <ele>158</ele>
        <time>2022-04-04T11:13:14Z</time>
      </trkpt>
      <trkpt lat="47.80607" lon="3.79237">
        <ele>157</ele>
        <time>2022-04-04T11:13:55Z</time>
      </trkpt>
      <trkpt lat="47.80632" lon="3.79268">
        <ele>155</ele>
        <time>2022-04-04T11:14:38Z</time>
      </trkpt>
      <trkpt lat="47.80654" lon="3.79306">
        <ele>154</ele>
        <time>2022-04-04T11:15:23Z</time>
      </trkpt>
      <trkpt lat="47.80673" lon="3.7934">
        <ele>153</ele>
        <time>2022-04-04T11:16:03Z</time>
      </trkpt>
      <trkpt lat="47.80713" lon="3.79267">
        <ele>150</ele>
        <time>2022-04-04T11:17:27Z</time>
      </trkpt>
      <trkpt lat="47.80679" lon="3.79356">
        <ele>152</ele>
        <time>2022-04-04T11:18:59Z</time>
      </trkpt>
      <trkpt lat="47.8081" lon="3.79548">
        <ele>147</ele>
        <time>2022-04-04T11:23:04Z</time>
      </trkpt>
      <trkpt lat="47.80813" lon="3.79664">
        <ele>144</ele>
        <time>2022-04-04T11:24:48Z</time>
      </trkpt>
      <trkpt lat="47.80818" lon="3.79709">
        <ele>142</ele>
        <time>2022-04-04T11:25:29Z</time>
      </trkpt>
      <trkpt lat="47.80932" lon="3.7995">
        <ele>137</ele>
        <time>2022-04-04T11:29:53Z</time>
      </trkpt>
      <trkpt lat="47.80961" lon="3.80021">
        <ele>137</ele>
        <time>2022-04-04T11:31:08Z</time>
      </trkpt>
      <trkpt lat="47.80979" lon="3.80108">
        <ele>138</ele>
        <time>2022-04-04T11:32:29Z</time>
      </trkpt>
      <trkpt lat="47.81007" lon="3.80247">
        <ele>136</ele>
        <time>2022-04-04T11:34:39Z</time>
      </trkpt>
      <trkpt lat="47.81018" lon="3.80335">
        <ele>134</ele>
        <time>2022-04-04T11:36:00Z</time>
      </trkpt>
      <trkpt lat="47.81029" lon="3.80411">
        <ele>133</ele>
        <time>2022-04-04T11:37:09Z</time>
      </trkpt>
      <trkpt lat="47.81053" lon="3.80485">
        <ele>132</ele>
        <time>2022-04-04T11:38:23Z</time>
      </trkpt>
      <trkpt lat="47.81095" lon="3.80435">
        <ele>133</ele>
        <time>2022-04-04T11:39:35Z</time>
      </trkpt>
      <trkpt lat="47.81146" lon="3.80398">
        <ele>133</ele>
        <time>2022-04-04T11:40:50Z</time>
      </trkpt>
      <trkpt lat="47.8123" lon="3.80316">
        <ele>133</ele>
        <time>2022-04-04T11:43:04Z</time>
      </trkpt>
      <trkpt lat="47.81267" lon="3.80398">
        <ele>132</ele>
        <time>2022-04-04T11:44:33Z</time>
      </trkpt>
      <trkpt lat="47.81284" lon="3.80382">
        <ele>132</ele>
        <time>2022-04-04T11:45:00Z</time>
      </trkpt>
      <trkpt lat="47.81297" lon="3.80381">
        <ele>131</ele>
        <time>2022-04-04T11:45:17Z</time>
      </trkpt>
      <trkpt lat="47.81323" lon="3.80344">
        <ele>131</ele>
        <time>2022-04-04T11:46:05Z</time>
      </trkpt>
      <trkpt lat="47.81366" lon="3.80276">
        <ele>132</ele>
        <time>2022-04-04T11:47:29Z</time>
      </trkpt>
      <trkpt lat="47.81414" lon="3.80223">
        <ele>133</ele>
        <time>2022-04-04T11:48:49Z</time>
      </trkpt>
      <trkpt lat="47.81414" lon="3.8021">
        <ele>134</ele>
        <time>2022-04-04T11:49:00Z</time>
      </trkpt>
      <trkpt lat="47.81489" lon="3.80183">
        <ele>134</ele>
        <time>2022-04-04T11:50:43Z</time>
      </trkpt>
      <trkpt lat="47.81533" lon="3.80164">
        <ele>133</ele>
        <time>2022-04-04T11:51:44Z</time>
      </trkpt>
      <trkpt lat="47.81538" lon="3.80154">
        <ele>133</ele>
        <time>2022-04-04T11:51:56Z</time>
      </trkpt>
      <trkpt lat="47.81556" lon="3.80154">
        <ele>133</ele>
        <time>2022-04-04T11:52:20Z</time>
      </trkpt>
      <trkpt lat="47.81584" lon="3.80134">
        <ele>133</ele>
        <time>2022-04-04T11:53:01Z</time>
      </trkpt>
      <trkpt lat="47.81622" lon="3.80112">
        <ele>132</ele>
        <time>2022-04-04T11:53:55Z</time>
      </trkpt>
      <trkpt lat="47.81618" lon="3.8008">
        <ele>133</ele>
        <time>2022-04-04T11:54:25Z</time>
      </trkpt>
      <trkpt lat="47.81601" lon="3.80076">
        <ele>134</ele>
        <time>2022-04-04T11:54:48Z</time>
      </trkpt>
      <trkpt lat="47.816" lon="3.8003">
        <ele>136</ele>
        <time>2022-04-04T11:55:29Z</time>
      </trkpt>
      <trkpt lat="47.8161" lon="3.80026">
        <ele>136</ele>
        <time>2022-04-04T11:55:43Z</time>
      </trkpt>
      <trkpt lat="47.81601" lon="3.7998">
        <ele>136</ele>
        <time>2022-04-04T11:56:26Z</time>
      </trkpt>
      <trkpt lat="47.81574" lon="3.79985">
        <ele>137</ele>
        <time>2022-04-04T11:57:02Z</time>
      </trkpt>
      <trkpt lat="47.81564" lon="3.79956">
        <ele>137</ele>
        <time>2022-04-04T11:57:31Z</time>
      </trkpt>
      <trkpt lat="47.81562" lon="3.79918">
        <ele>137</ele>
        <time>2022-04-04T11:58:05Z</time>
      </trkpt>
      <trkpt lat="47.81532" lon="3.79919">
        <ele>137</ele>
        <time>2022-04-04T11:58:45Z</time>
      </trkpt>
      <trkpt lat="47.81502" lon="3.79898">
        <ele>138</ele>
        <time>2022-04-04T11:59:29Z</time>
      </trkpt>
      <trkpt lat="47.81498" lon="3.79915">
        <ele>138</ele>
        <time>2022-04-04T11:59:46Z</time>
      </trkpt>
      <trkpt lat="47.81504" lon="3.79921">
        <ele>138</ele>
        <time>2022-04-04T11:59:55Z</time>
      </trkpt>
      <trkpt lat="47.815" lon="3.79943">
        <ele>138</ele>
        <time>2022-04-04T12:00:16Z</time>
      </trkpt>
      <trkpt lat="47.81501" lon="3.79955">
        <ele>138</ele>
        <time>2022-04-04T12:00:27Z</time>
      </trkpt>
      <trkpt lat="47.81499" lon="3.79966">
        <ele>139</ele>
        <time>2022-04-04T12:00:37Z</time>
      </trkpt>
      <trkpt lat="47.8145" lon="3.79941">
        <ele>139</ele>
        <time>2022-04-04T12:01:46Z</time>
      </trkpt>
      <trkpt lat="47.8144" lon="3.80007">
        <ele>140</ele>
        <time>2022-04-04T12:02:46Z</time>
      </trkpt>
      <trkpt lat="47.81443" lon="3.80072">
        <ele>138</ele>
        <time>2022-04-04T12:03:45Z</time>
      </trkpt>
      <trkpt lat="47.814" lon="3.80065">
        <ele>139</ele>
        <time>2022-04-04T12:04:43Z</time>
      </trkpt>
      <trkpt lat="47.81378" lon="3.80058">
        <ele>139</ele>
        <time>2022-04-04T12:05:13Z</time>
      </trkpt>
      <trkpt lat="47.81365" lon="3.80046">
        <ele>139</ele>
        <time>2022-04-04T12:05:33Z</time>
      </trkpt>
      <trkpt lat="47.81307" lon="3.80063">
        <ele>139</ele>
        <time>2022-04-04T12:06:52Z</time>
      </trkpt>
      <trkpt lat="47.8131" lon="3.80027">
        <ele>139</ele>
        <time>2022-04-04T12:07:24Z</time>
      </trkpt>
      <trkpt lat="47.81277" lon="3.80026">
        <ele>139</ele>
        <time>2022-04-04T12:08:08Z</time>
      </trkpt>
      <trkpt lat="47.81275" lon="3.79979">
        <ele>139</ele>
        <time>2022-04-04T12:08:51Z</time>
      </trkpt>
    </trkseg>
  </trk>
</gpx>